Terminal Aerodrome Forecast
Issued by NWS

Home | Current Version | Previous Version | Text Only | Print | Product List | Glossary On
Versions: 1 2 3 4 5 6 7 8 9 10 11 12 13 14 15 16 17 18 19
778
FTUS46 KHNX 081725
TAFMCE
TAF
KMCE 081725Z 0818/0918 VRB03KT 5SM HZ SKC
     FM082000 VRB03KT P6SM SKC
     FM090600 00000KT 3SM BR SKC
      TEMPO 0908/0912 1SM BR
     FM091200 00000KT 1 1/2SM BR SKC
      TEMPO 0912/0916 1/2SM FG VV002
     FM091700 00000KT 3SM BR SKC=

USA.gov is the U.S. government's official web portal to all federal, state and local government web resources and services.